Kugler, Minnesota
Current Conditions -  °F | °C
As of 1:55 PM on Tuesday 21 Oct 2014 (Local Time) from KCQM Reporting Station
Overcast Overcast  
Wind Chill: 40°   Ceiling: 2200
Heat Index: 45°   Visibility: 10mi
Dew Point: 36°   Wind: 9mph
Humidity: 71%   Direction: 150°SSE
Pressure: 30.2"   Gusts: 17mph
Location:  47.7992°N, 92.3042°W
Report Text: KCQM 211855Z AUTO 15008G15KT 10SM OVC022 07/02 A3020 RMK AO2
Loading
Personal Weather Stations






























Interactive Weather Map
Tropical Storm Tracking
New forecast layout! Learn more

10-Day Weather Forecast

Advertisements
Track Severe Weather on mobile